createdAt,value
2019-05-01T00:01:45.064Z,41.65
2019-05-01T00:04:21.143Z,43.15
2019-05-01T00:06:54.248Z,43.95
2019-05-01T00:09:25.753Z,44.65
2019-05-01T00:11:57.246Z,43.98
2019-05-01T00:14:30.252Z,43.52
2019-05-01T00:17:02.172Z,43.38
2019-05-01T00:19:33.883Z,45.65
2019-05-01T00:22:05.260Z,45.90
2019-05-01T00:24:36.740Z,45.03
2019-05-01T00:27:08.190Z,47.25
2019-05-01T00:29:39.707Z,46.50
2019-05-01T00:32:11.239Z,47.65
2019-05-01T00:34:42.714Z,45.23
2019-05-01T00:37:14.165Z,45.33
2019-05-01T00:39:45.717Z,47.67
2019-05-01T00:42:17.136Z,44.00
2019-05-01T00:44:48.640Z,43.58
2019-05-01T00:47:20.087Z,44.33
2019-05-01T00:49:51.639Z,43.70
2019-05-01T00:52:23.044Z,44.63
2019-05-01T00:55:12.638Z,41.75
2019-05-01T00:57:45.649Z,43.58
2019-05-01T01:00:24.768Z,43.23
2019-05-01T01:02:56.278Z,45.28
2019-05-01T01:05:27.788Z,44.65
2019-05-01T01:07:59.324Z,44.13
2019-05-01T01:10:30.834Z,43.20
2019-05-01T01:13:03.287Z,43.87
2019-05-01T01:15:34.731Z,43.68
2019-05-01T01:18:06.254Z,45.05
2019-05-01T01:20:37.666Z,45.12
2019-05-01T01:23:09.054Z,43.65
2019-05-01T01:25:40.550Z,45.83
2019-05-01T01:28:12.049Z,44.85
2019-05-01T01:30:55.676Z,44.65
2019-05-01T01:33:17.131Z,44.58
2019-05-01T01:35:48.552Z,42.78
2019-05-01T01:38:19.980Z,43.30
2019-05-01T01:40:51.743Z,43.20
2019-05-01T01:43:40.014Z,44.00
2019-05-01T01:46:28.298Z,42.95
2019-05-01T01:48:59.904Z,43.78
2019-05-01T01:51:31.496Z,44.03
2019-05-01T01:54:03.233Z,41.92
2019-05-01T01:56:34.879Z,41.00
2019-05-01T01:59:06.465Z,41.98
2019-05-01T02:01:49.333Z,40.28
2019-05-01T02:04:40.007Z,40.10
2019-05-01T02:07:11.511Z,40.75
2019-05-01T02:09:42.917Z,39.08
2019-05-01T02:12:15.098Z,39.73
2019-05-01T02:14:46.492Z,42.20
2019-05-01T02:17:18.013Z,41.20
2019-05-01T02:19:49.585Z,38.75
2019-05-01T02:22:21.001Z,39.95
2019-05-01T02:24:52.382Z,40.20
2019-05-01T02:27:28.483Z,40.17
2019-05-01T02:30:02.466Z,40.75
2019-05-01T02:32:35.311Z,39.07
2019-05-01T02:35:07.778Z,40.03
2019-05-01T02:37:39.882Z,39.00
2019-05-01T02:40:43.018Z,38.75
2019-05-01T02:46:03.254Z,40.55
2019-05-01T02:48:37.851Z,40.25
2019-05-01T02:51:10.513Z,39.85
2019-05-01T02:53:44.958Z,40.38
2019-05-01T02:56:19.462Z,39.50
2019-05-01T02:58:53.882Z,40.25
2019-05-01T03:01:25.992Z,39.63
2019-05-01T03:03:58.273Z,41.50
2019-05-01T03:06:32.350Z,39.80
2019-05-01T03:09:07.444Z,40.52
2019-05-01T03:14:19.752Z,40.20
2019-05-01T03:16:54.358Z,41.35
2019-05-01T03:19:31.694Z,44.25
2019-05-01T03:22:20.490Z,40.23
2019-05-01T03:24:52.536Z,40.20
2019-05-01T03:27:23.970Z,40.40
2019-05-01T03:29:55.831Z,41.00
2019-05-01T03:32:27.324Z,40.83
2019-05-01T03:34:58.727Z,44.15
2019-05-01T03:37:30.600Z,42.10
2019-05-01T03:40:02.078Z,41.10
2019-05-01T03:42:34.835Z,44.63
2019-05-01T03:45:07.306Z,40.17
2019-05-01T03:47:38.836Z,39.38
2019-05-01T03:50:10.412Z,41.80
2019-05-01T03:52:42.364Z,42.03
2019-05-01T03:55:14.314Z,44.50
2019-05-01T03:57:45.893Z,51.53
2019-05-01T04:00:22.174Z,47.80
2019-05-01T04:03:11.929Z,48.17
2019-05-01T04:05:44.209Z,48.52
2019-05-01T04:08:16.642Z,50.52
2019-05-01T04:10:48.920Z,50.17
2019-05-01T04:13:20.411Z,52.50
2019-05-01T04:15:53.581Z,44.08
2019-05-01T04:18:26.838Z,41.95
2019-05-01T04:20:59.197Z,47.85
2019-05-01T04:23:31.090Z,41.55
2019-05-01T04:26:02.959Z,40.38
2019-05-01T04:28:40.244Z,42.53
2019-05-01T04:31:13.417Z,40.80
2019-05-01T04:33:46.926Z,45.83
2019-05-01T04:36:38.509Z,45.17
2019-05-01T04:39:09.908Z,51.13
2019-05-01T04:41:41.480Z,50.90
2019-05-01T04:44:12.866Z,51.53
2019-05-01T04:46:44.248Z,54.45
2019-05-01T04:49:18.074Z,52.08
2019-05-01T04:51:49.302Z,52.30
2019-05-01T04:54:21.370Z,49.60
2019-05-01T04:56:53.142Z,48.38
2019-05-01T04:59:24.630Z,47.67
2019-05-01T05:01:58.433Z,46.40
2019-05-01T05:04:30.717Z,52.65
2019-05-01T05:07:02.192Z,49.55
2019-05-01T05:09:39.157Z,46.73
2019-05-01T05:12:12.662Z,46.60
2019-05-01T05:14:48.576Z,42.25
2019-05-01T05:17:21.661Z,45.85
2019-05-01T05:19:53.395Z,44.50
2019-05-01T05:22:25.917Z,45.58
2019-05-01T05:24:57.674Z,44.93
2019-05-01T05:27:30.285Z,43.90
2019-05-01T05:30:02.628Z,43.13
2019-05-01T05:32:35.966Z,41.92
2019-05-01T05:35:08.951Z,41.28
2019-05-01T05:37:58.312Z,42.73
2019-05-01T05:40:32.767Z,42.73
2019-05-01T05:43:05.696Z,41.65
2019-05-01T05:45:37.457Z,41.75
2019-05-01T05:48:09.343Z,40.55
2019-05-01T05:51:02.740Z,41.73
2019-05-01T05:53:37.706Z,41.58
2019-05-01T05:58:46.166Z,41.80
2019-05-01T06:04:20.931Z,40.08
2019-05-01T06:07:00.997Z,39.27
2019-05-01T06:09:37.155Z,37.42
2019-05-01T06:12:16.101Z,40.45
2019-05-01T06:14:51.400Z,41.28
2019-05-01T06:17:36.655Z,38.67
2019-05-01T06:23:07.413Z,37.78
2019-05-01T06:25:42.986Z,36.60
2019-05-01T06:28:15.430Z,37.30
2019-05-01T06:30:48.793Z,39.50
2019-05-01T06:33:19.943Z,37.23
2019-05-01T06:35:51.447Z,37.50
2019-05-01T06:38:45.369Z,37.17
2019-05-01T06:41:07.635Z,37.03
2019-05-01T06:43:44.180Z,37.42
2019-05-01T06:46:22.192Z,35.03
2019-05-01T06:48:55.794Z,37.30
2019-05-01T06:51:35.500Z,37.13
2019-05-01T06:54:11.366Z,35.52
2019-05-01T06:56:43.198Z,35.00
2019-05-01T06:59:16.774Z,36.20
2019-05-01T07:01:53.263Z,36.10
2019-05-01T07:04:24.680Z,34.88
2019-05-01T07:06:56.168Z,34.18
2019-05-01T07:09:28.450Z,34.50
2019-05-01T07:12:02.802Z,34.80
2019-05-01T07:14:34.965Z,36.73
2019-05-01T07:17:09.005Z,35.48
2019-05-01T07:19:54.349Z,35.43
2019-05-01T07:22:28.139Z,34.48
2019-05-01T07:25:07.044Z,32.35
2019-05-01T07:27:49.198Z,32.60
2019-05-01T07:30:41.361Z,33.58
2019-05-01T07:33:16.700Z,31.15
2019-05-01T07:35:53.824Z,32.23
2019-05-01T07:38:27.507Z,32.35
2019-05-01T07:41:03.493Z,33.02
2019-05-01T07:46:13.777Z,31.93
2019-05-01T07:48:56.388Z,31.50
2019-05-01T07:51:37.791Z,34.40
2019-05-01T07:54:11.480Z,32.38
2019-05-01T07:56:44.972Z,33.38
2019-05-01T07:59:22.743Z,33.80
2019-05-01T08:01:59.068Z,33.67
2019-05-01T08:04:36.313Z,32.90
2019-05-01T08:07:14.726Z,30.60
2019-05-01T08:09:50.249Z,32.65
2019-05-01T08:12:23.895Z,34.78
2019-05-01T08:14:55.850Z,32.13
2019-05-01T08:17:29.146Z,32.40
2019-05-01T08:20:05.058Z,32.75
2019-05-01T08:22:39.416Z,30.20
2019-05-01T08:25:15.240Z,31.68
2019-05-01T08:27:56.208Z,29.82
2019-05-01T08:30:35.621Z,31.15
2019-05-01T08:33:09.767Z,28.30
2019-05-01T08:35:41.775Z,27.73
2019-05-01T08:38:13.287Z,28.87
2019-05-01T08:40:44.734Z,33.30
2019-05-01T08:43:18.121Z,27.15
2019-05-01T08:45:51.834Z,26.12
2019-05-01T08:48:35.755Z,27.17
2019-05-01T08:51:04.460Z,25.50
2019-05-01T08:53:35.908Z,26.02
2019-05-01T08:56:09.720Z,23.57
2019-05-01T08:58:40.616Z,23.90
2019-05-01T09:01:14.970Z,22.48
2019-05-01T09:03:45.390Z,21.50
2019-05-01T09:06:16.783Z,20.30
2019-05-01T09:08:48.302Z,20.88
2019-05-01T09:11:19.716Z,18.95
2019-05-01T09:13:54.710Z,20.77
2019-05-01T09:16:28.323Z,21.00
2019-05-01T09:18:57.444Z,18.98
2019-05-01T09:21:28.851Z,20.08
2019-05-01T09:24:00.306Z,19.42
2019-05-01T09:26:36.165Z,20.02
2019-05-01T09:29:16.124Z,20.00
2019-05-01T09:31:45.144Z,19.85
2019-05-01T09:34:19.135Z,21.27
2019-05-01T09:36:49.768Z,21.75
2019-05-01T09:39:22.882Z,20.60
2019-05-01T09:41:54.306Z,19.37
2019-05-01T09:44:25.732Z,20.00
2019-05-01T09:46:57.094Z,21.05
2019-05-01T09:49:28.569Z,20.75
2019-05-01T09:52:18.919Z,20.35
2019-05-01T09:54:54.387Z,19.65
2019-05-01T09:57:25.873Z,18.48
2019-05-01T09:59:57.336Z,17.40
2019-05-01T10:02:28.787Z,17.57
2019-05-01T10:05:02.115Z,14.47
2019-05-01T10:07:33.327Z,13.53
2019-05-01T10:10:06.979Z,13.45
2019-05-01T10:12:41.912Z,12.00
2019-05-01T10:15:11.505Z,11.48
2019-05-01T10:17:43.021Z,11.40
2019-05-01T10:20:14.453Z,10.55
2019-05-01T10:22:45.812Z,11.10
2019-05-01T10:25:17.200Z,11.30
2019-05-01T10:27:52.875Z,10.13
2019-05-01T10:30:31.701Z,10.65
2019-05-01T10:33:17.812Z,10.55
2019-05-01T10:36:07.080Z,10.98
2019-05-01T10:38:39.943Z,10.85
2019-05-01T10:41:11.635Z,10.13
2019-05-01T10:43:43.114Z,10.43
2019-05-01T10:46:14.652Z,10.20
2019-05-01T10:48:46.063Z,9.68
2019-05-01T10:51:17.408Z,11.08
2019-05-01T10:53:48.826Z,9.50
2019-05-01T10:56:20.175Z,10.70
2019-05-01T10:58:51.637Z,10.10
2019-05-01T11:01:41.108Z,10.90
2019-05-01T11:04:12.629Z,9.73
2019-05-01T11:06:44.044Z,9.78
2019-05-01T11:09:15.382Z,8.55
2019-05-01T11:11:46.834Z,8.70
2019-05-01T11:14:18.441Z,9.03
2019-05-01T11:16:49.951Z,8.60
2019-05-01T11:19:21.513Z,8.78
2019-05-01T11:21:53.038Z,9.13
2019-05-01T11:24:24.823Z,9.00
2019-05-01T11:26:56.514Z,9.55
2019-05-01T11:29:28.332Z,10.18
2019-05-01T11:32:13.743Z,9.83
2019-05-01T11:34:46.815Z,7.00
2019-05-01T11:37:25.897Z,8.35
2019-05-01T11:39:58.978Z,6.55
2019-05-01T11:42:30.593Z,7.10
2019-05-01T11:45:02.153Z,5.85
2019-05-01T11:47:33.677Z,6.33
2019-05-01T11:50:06.311Z,5.47
2019-05-01T11:52:37.817Z,5.53
2019-05-01T11:55:09.363Z,6.45
2019-05-01T11:57:40.874Z,5.35
2019-05-01T12:00:15.552Z,5.85
2019-05-01T12:02:47.107Z,6.15
2019-05-01T12:05:18.621Z,4.92
2019-05-01T12:07:50.206Z,5.37
2019-05-01T12:10:21.735Z,5.20
2019-05-01T12:12:53.278Z,5.25
2019-05-01T12:15:24.954Z,5.62
2019-05-01T12:17:56.475Z,5.47
2019-05-01T12:20:27.979Z,4.70
2019-05-01T12:22:59.499Z,5.25
2019-05-01T12:25:31.077Z,4.25
2019-05-01T12:28:02.623Z,4.50
2019-05-01T12:30:34.140Z,4.65
2019-05-01T12:33:05.648Z,4.72
2019-05-01T12:35:37.244Z,4.35
2019-05-01T12:38:08.830Z,4.42
2019-05-01T12:40:40.369Z,3.83
2019-05-01T12:43:12.391Z,4.78
2019-05-01T12:45:45.716Z,4.47
2019-05-01T12:48:17.249Z,4.03
2019-05-01T12:50:50.348Z,3.92
2019-05-01T12:53:23.495Z,3.83
2019-05-01T12:56:06.752Z,3.37
2019-05-01T12:58:38.261Z,3.40
2019-05-01T13:01:09.785Z,3.83
2019-05-01T13:03:41.318Z,3.37
2019-05-01T13:06:14.514Z,3.67
2019-05-01T13:08:46.185Z,4.72
2019-05-01T13:11:17.698Z,2.92
2019-05-01T13:13:49.280Z,3.90
2019-05-01T13:16:20.825Z,3.50
2019-05-01T13:18:52.368Z,3.30
2019-05-01T13:21:23.933Z,3.67
2019-05-01T13:23:55.486Z,4.03
2019-05-01T13:26:28.624Z,4.05
2019-05-01T13:29:17.257Z,3.70
2019-05-01T13:31:56.226Z,5.17
2019-05-01T13:34:27.816Z,3.98
2019-05-01T13:37:03.043Z,4.60
2019-05-01T13:39:32.689Z,4.78
2019-05-01T13:42:05.104Z,4.42
2019-05-01T13:44:36.702Z,3.50
2019-05-01T13:47:08.353Z,3.45
2019-05-01T13:49:39.914Z,3.98
2019-05-01T13:52:11.456Z,3.10
2019-05-01T13:54:43.009Z,3.30
2019-05-01T13:57:14.612Z,2.92
2019-05-01T13:59:46.215Z,2.65
2019-05-01T14:02:17.779Z,3.10
2019-05-01T14:04:49.395Z,3.92
2019-05-01T14:07:21.126Z,3.33
2019-05-01T14:09:52.653Z,3.33
2019-05-01T14:12:24.341Z,4.60
2019-05-01T14:14:55.940Z,3.35
2019-05-01T14:17:27.541Z,3.65
2019-05-01T14:20:06.520Z,3.95
2019-05-01T14:22:54.637Z,3.27
2019-05-01T14:25:26.226Z,3.17
2019-05-01T14:27:57.917Z,3.08
2019-05-01T14:30:29.457Z,2.62
2019-05-01T14:33:00.975Z,3.62
2019-05-01T14:35:32.514Z,2.87
2019-05-01T14:38:04.027Z,3.00
2019-05-01T14:40:37.444Z,3.80
2019-05-01T14:43:09.022Z,3.35
2019-05-01T14:45:40.655Z,2.87
2019-05-01T14:48:12.617Z,2.70
2019-05-01T14:50:44.173Z,3.42
2019-05-01T14:53:15.656Z,2.87
2019-05-01T14:55:47.189Z,2.77
2019-05-01T14:58:18.754Z,2.87
2019-05-01T15:00:50.406Z,3.00
2019-05-01T15:03:21.956Z,3.12
2019-05-01T15:05:53.507Z,4.22
2019-05-01T15:08:25.051Z,3.65
2019-05-01T15:10:58.145Z,3.52
2019-05-01T15:13:35.413Z,4.42
2019-05-01T15:16:16.491Z,5.00
2019-05-01T15:19:02.749Z,4.75
2019-05-01T15:21:35.429Z,5.55
2019-05-01T15:24:07.162Z,5.53
2019-05-01T15:26:38.711Z,4.03
2019-05-01T15:29:10.299Z,2.98
2019-05-01T15:31:41.942Z,3.40
2019-05-01T15:34:13.441Z,2.90
2019-05-01T15:36:45.009Z,3.02
2019-05-01T15:39:22.077Z,3.10
2019-05-01T15:42:10.398Z,3.90
2019-05-01T15:44:43.540Z,3.83
2019-05-01T15:47:15.073Z,5.12
2019-05-01T15:49:46.609Z,4.15
2019-05-01T15:52:18.135Z,3.40
2019-05-01T15:54:49.625Z,2.98
2019-05-01T15:57:24.162Z,4.05
2019-05-01T15:59:55.688Z,3.80
2019-05-01T16:02:27.215Z,3.70
2019-05-01T16:04:58.775Z,3.50
2019-05-01T16:07:35.109Z,3.27
2019-05-01T16:10:12.651Z,3.90
2019-05-01T16:12:52.657Z,3.77
2019-05-01T16:15:29.264Z,4.00
2019-05-01T16:18:02.313Z,4.08
2019-05-01T16:20:34.069Z,4.65
2019-05-01T16:23:05.623Z,4.15
2019-05-01T16:25:37.269Z,2.95
2019-05-01T16:28:08.894Z,2.80
2019-05-01T16:30:40.424Z,3.50
2019-05-01T16:33:11.957Z,2.83
2019-05-01T16:35:43.605Z,2.70
2019-05-01T16:38:23.126Z,2.47
2019-05-01T16:41:04.068Z,2.62
2019-05-01T16:43:37.006Z,2.45
2019-05-01T16:46:08.518Z,3.22
2019-05-01T16:48:41.582Z,2.60
2019-05-01T16:51:16.087Z,3.27
2019-05-01T16:56:44.406Z,2.70
2019-05-01T16:59:18.817Z,3.40
2019-05-01T17:01:55.085Z,3.83
2019-05-01T17:04:44.715Z,4.22
2019-05-01T17:07:17.951Z,3.65
2019-05-01T17:10:04.365Z,3.60
2019-05-01T17:12:49.517Z,3.60
2019-05-01T17:15:28.310Z,3.77
2019-05-01T17:18:01.358Z,2.87
2019-05-01T17:20:34.051Z,3.40
2019-05-01T17:23:05.823Z,3.15
2019-05-01T17:25:39.072Z,3.10
2019-05-01T17:28:10.577Z,3.10
2019-05-01T17:30:44.708Z,3.10
2019-05-01T17:35:49.654Z,3.77
2019-05-01T17:38:21.217Z,5.42
2019-05-01T17:40:53.587Z,3.85
2019-05-01T17:43:26.404Z,4.75
2019-05-01T17:45:59.446Z,3.60
2019-05-01T17:48:33.614Z,3.58
2019-05-01T17:51:04.299Z,3.25
2019-05-01T17:53:35.948Z,5.25
2019-05-01T17:56:10.205Z,3.33
2019-05-01T17:58:40.449Z,3.37
2019-05-01T18:01:33.221Z,2.98
2019-05-01T18:04:07.453Z,2.98
2019-05-01T18:06:42.031Z,3.15
2019-05-01T18:09:16.307Z,3.10
2019-05-01T18:11:52.402Z,2.98
2019-05-01T18:14:20.693Z,3.77
2019-05-01T18:16:52.057Z,2.90
2019-05-01T18:19:26.327Z,3.08
2019-05-01T18:22:05.300Z,2.72
2019-05-01T18:24:53.886Z,3.20
2019-05-01T18:27:43.881Z,3.20
2019-05-01T18:30:20.585Z,3.20
2019-05-01T18:35:23.433Z,2.47
2019-05-01T18:37:59.279Z,3.02
2019-05-01T18:40:50.346Z,2.40
2019-05-01T18:43:26.929Z,42.30
2019-05-01T18:45:57.956Z,4.05
2019-05-01T18:48:29.270Z,2.58
2019-05-01T18:51:03.633Z,2.60
2019-05-01T18:53:35.062Z,2.58
2019-05-01T18:56:07.035Z,2.90
2019-05-01T18:58:38.581Z,2.60
2019-05-01T19:01:31.060Z,2.25
2019-05-01T19:04:04.751Z,2.55
2019-05-01T19:06:41.309Z,2.55
2019-05-01T19:09:29.722Z,2.27
2019-05-01T19:11:54.458Z,2.30
2019-05-01T19:14:28.688Z,2.40
2019-05-01T19:17:00.287Z,2.55
2019-05-01T19:19:31.565Z,2.47
2019-05-01T19:22:02.977Z,2.02
2019-05-01T19:24:38.191Z,2.12
2019-05-01T19:27:08.086Z,2.40
2019-05-01T19:29:40.622Z,1.80
2019-05-01T19:32:14.996Z,2.10
2019-05-01T19:34:47.339Z,2.83
2019-05-01T19:37:22.000Z,2.12
2019-05-01T19:39:54.970Z,2.35
2019-05-01T19:42:26.450Z,4.50
2019-05-01T19:44:59.167Z,2.62
2019-05-01T19:47:31.002Z,2.60
2019-05-01T19:50:07.573Z,2.30
2019-05-01T19:52:37.795Z,3.05
2019-05-01T19:55:12.347Z,2.55
2019-05-01T19:57:43.665Z,2.80
2019-05-01T20:00:17.721Z,2.67
2019-05-01T20:02:49.128Z,2.90
2019-05-01T20:05:21.952Z,2.75
2019-05-01T20:07:56.140Z,3.08
2019-05-01T20:10:29.273Z,3.50
2019-05-01T20:13:00.620Z,3.30
2019-05-01T20:15:32.429Z,2.98
2019-05-01T20:18:03.699Z,2.83
2019-05-01T20:20:34.959Z,4.12
2019-05-01T20:23:06.485Z,3.15
2019-05-01T20:25:37.715Z,3.10
2019-05-01T20:28:08.983Z,3.20
2019-05-01T20:30:40.321Z,3.85
2019-05-01T20:33:11.568Z,3.20
2019-05-01T20:35:42.793Z,3.52
2019-05-01T20:38:14.116Z,3.80
2019-05-01T20:40:45.450Z,3.67
2019-05-01T20:43:17.755Z,2.98
2019-05-01T20:45:51.136Z,3.17
2019-05-01T20:48:23.757Z,3.22
2019-05-01T20:50:55.280Z,2.95
2019-05-01T20:53:26.598Z,3.12
2019-05-01T20:55:59.494Z,2.92
2019-05-01T20:58:30.887Z,2.92
2019-05-01T21:01:03.188Z,2.75
2019-05-01T21:03:36.391Z,2.20
2019-05-01T21:06:28.103Z,2.00
2019-05-01T21:09:13.716Z,2.70
2019-05-01T21:12:05.066Z,3.30
2019-05-01T21:14:30.755Z,2.00
2019-05-01T21:17:02.022Z,2.10
2019-05-01T21:19:35.305Z,2.60
2019-05-01T21:22:06.378Z,2.60
2019-05-01T21:24:37.688Z,2.98
2019-05-01T21:27:08.931Z,2.22
2019-05-01T21:29:44.529Z,1.87
2019-05-01T21:32:18.227Z,2.20
2019-05-01T21:34:50.434Z,2.08
2019-05-01T21:37:23.370Z,2.27
2019-05-01T21:39:54.766Z,2.40
2019-05-01T21:42:26.039Z,2.27
2019-05-01T21:44:57.356Z,2.00
2019-05-01T21:47:28.605Z,2.30
2019-05-01T21:49:59.958Z,2.45
2019-05-01T21:52:32.936Z,3.10
2019-05-01T21:55:05.561Z,2.10
2019-05-01T21:57:40.120Z,2.17
2019-05-01T22:00:10.397Z,2.65
2019-05-01T22:02:46.387Z,2.20
2019-05-01T22:05:16.239Z,2.35
2019-05-01T22:07:47.520Z,2.50
2019-05-01T22:10:21.522Z,2.50
2019-05-01T22:12:52.023Z,2.33
2019-05-01T22:15:27.616Z,2.62
2019-05-01T22:18:00.628Z,2.75
2019-05-01T22:20:50.074Z,2.52
2019-05-01T22:23:23.236Z,2.50
2019-05-01T22:26:00.371Z,2.25
2019-05-01T22:28:36.494Z,2.17
2019-05-01T22:31:25.580Z,3.50
2019-05-01T22:33:58.626Z,2.75
2019-05-01T22:36:31.037Z,2.60
2019-05-01T22:39:05.995Z,2.70
2019-05-01T22:41:39.319Z,2.95
2019-05-01T22:44:12.852Z,2.85
2019-05-01T22:46:43.789Z,2.70
2019-05-01T22:49:16.133Z,2.95
2019-05-01T22:51:47.553Z,2.67
2019-05-01T22:54:18.894Z,3.33
2019-05-01T22:56:50.266Z,2.75
2019-05-01T22:59:21.533Z,2.95
2019-05-01T23:01:54.420Z,2.67
2019-05-01T23:04:26.131Z,2.90
2019-05-01T23:06:57.482Z,2.75
2019-05-01T23:09:30.374Z,3.25
2019-05-01T23:12:01.772Z,3.08
2019-05-01T23:14:33.140Z,2.85
2019-05-01T23:17:06.210Z,2.83
2019-05-01T23:19:37.540Z,3.55
2019-05-01T23:22:08.772Z,3.15
2019-05-01T23:24:40.028Z,3.22
2019-05-01T23:27:11.350Z,2.87
2019-05-01T23:29:42.726Z,3.00
2019-05-01T23:32:14.035Z,2.90
2019-05-01T23:34:45.330Z,3.30
2019-05-01T23:37:16.740Z,3.05
2019-05-01T23:39:47.975Z,3.37
2019-05-01T23:42:19.226Z,3.25
2019-05-01T23:44:50.488Z,3.33
2019-05-01T23:47:21.894Z,3.30
2019-05-01T23:49:53.856Z,3.62
2019-05-01T23:52:26.307Z,3.22
2019-05-01T23:54:57.615Z,3.45
2019-05-01T23:57:28.926Z,3.30
